createdAt,value
2022-12-13T00:01:40.761Z,10.07
2022-12-13T00:04:08.579Z,9.50
2022-12-13T00:06:46.022Z,8.90
2022-12-13T00:09:19.071Z,8.73
2022-12-13T00:11:48.978Z,8.87
2022-12-13T00:14:16.382Z,9.37
2022-12-13T00:16:47.743Z,8.37
2022-12-13T00:19:21.421Z,8.30
2022-12-13T00:25:37.445Z,8.73
2022-12-13T00:28:04.774Z,8.60
2022-12-13T00:30:38.481Z,8.50
2022-12-13T00:33:06.874Z,8.60
2022-12-13T00:35:42.640Z,8.20
2022-12-13T00:38:10.832Z,8.87
2022-12-13T00:40:37.727Z,8.93
2022-12-13T00:43:07.211Z,8.47
2022-12-13T00:45:35.890Z,8.43
2022-12-13T00:48:02.816Z,8.47
2022-12-13T00:50:49.297Z,8.73
2022-12-13T00:53:16.904Z,8.47
2022-12-13T00:55:44.199Z,8.90
2022-12-13T00:58:11.381Z,9.27
2022-12-13T01:00:38.367Z,8.90
2022-12-13T01:03:20.838Z,8.97
2022-12-13T01:06:14.204Z,9.43
2022-12-13T01:08:40.732Z,9.33
2022-12-13T01:11:08.808Z,9.27
2022-12-13T01:13:36.688Z,9.30
2022-12-13T01:16:09.644Z,9.43
2022-12-13T01:18:37.594Z,8.87
2022-12-13T01:21:32.493Z,8.90
2022-12-13T01:24:16.404Z,9.93
2022-12-13T01:26:48.979Z,8.87
2022-12-13T01:29:23.177Z,9.27
2022-12-13T01:32:14.091Z,8.67
2022-12-13T01:34:40.973Z,8.80
2022-12-13T01:37:07.863Z,9.10
2022-12-13T01:39:38.329Z,9.70
2022-12-13T01:42:19.382Z,9.90
2022-12-13T01:45:04.761Z,9.57
2022-12-13T01:47:43.902Z,9.37
2022-12-13T01:50:24.856Z,8.83
2022-12-13T01:52:53.446Z,8.73
2022-12-13T01:55:22.731Z,8.80
2022-12-13T01:57:51.836Z,9.03
2022-12-13T02:00:19.781Z,8.87
2022-12-13T02:02:48.422Z,9.57
2022-12-13T02:05:25.603Z,8.57
2022-12-13T02:07:53.713Z,8.50
2022-12-13T02:10:21.070Z,9.03
2022-12-13T02:12:48.270Z,8.87
2022-12-13T02:15:18.173Z,9.07
2022-12-13T02:17:57.152Z,8.80
2022-12-13T02:21:14.717Z,9.00
2022-12-13T02:23:59.979Z,8.33
2022-12-13T02:26:54.157Z,8.20
2022-12-13T02:29:30.020Z,8.30
2022-12-13T02:32:45.231Z,8.63
2022-12-13T02:35:32.025Z,8.80
2022-12-13T02:38:10.883Z,8.87
2022-12-13T02:40:47.746Z,8.77
2022-12-13T02:43:23.850Z,8.97
2022-12-13T02:46:03.156Z,9.27
2022-12-13T02:48:37.346Z,9.23
2022-12-13T02:51:06.138Z,9.20
2022-12-13T02:53:34.518Z,9.03
2022-12-13T02:56:01.401Z,9.10
2022-12-13T02:58:35.834Z,8.07
2022-12-13T03:01:28.445Z,8.57
2022-12-13T03:04:23.416Z,8.10
2022-12-13T03:07:06.521Z,7.97
2022-12-13T03:10:02.177Z,8.23
2022-12-13T03:13:03.875Z,8.10
2022-12-13T03:15:43.649Z,8.20
2022-12-13T03:18:16.051Z,8.53
2022-12-13T03:20:48.829Z,8.53
2022-12-13T03:23:17.303Z,8.20
2022-12-13T03:25:45.813Z,7.90
2022-12-13T03:28:12.792Z,8.53
2022-12-13T03:30:39.758Z,8.20
2022-12-13T03:33:06.639Z,8.80
2022-12-13T03:35:34.847Z,9.13
2022-12-13T03:38:21.431Z,8.90
2022-12-13T03:41:10.371Z,8.57
2022-12-13T03:43:38.130Z,9.10
2022-12-13T03:46:05.333Z,8.90
2022-12-13T03:48:32.691Z,9.60
2022-12-13T03:50:59.548Z,10.47
2022-12-13T03:53:33.852Z,11.00
2022-12-13T03:56:06.489Z,10.73
2022-12-13T03:58:37.605Z,9.17
2022-12-13T04:01:07.131Z,10.47
2022-12-13T04:03:34.211Z,10.33
2022-12-13T04:06:01.048Z,11.00
2022-12-13T04:08:28.001Z,10.67
2022-12-13T04:10:54.909Z,10.60
2022-12-13T04:13:34.191Z,10.20
2022-12-13T04:16:02.915Z,10.77
2022-12-13T04:18:29.961Z,11.27
2022-12-13T04:20:57.661Z,11.23
2022-12-13T04:23:24.762Z,11.77
2022-12-13T04:25:51.829Z,11.33
2022-12-13T04:28:21.841Z,11.50
2022-12-13T04:30:53.266Z,12.43
2022-12-13T04:33:21.837Z,11.67
2022-12-13T04:35:49.230Z,11.40
2022-12-13T04:38:16.321Z,11.00
2022-12-13T04:40:43.293Z,11.97
2022-12-13T04:43:10.306Z,12.57
2022-12-13T04:45:37.409Z,11.87
2022-12-13T04:48:04.725Z,12.60
2022-12-13T04:50:31.606Z,10.73
2022-12-13T04:52:58.445Z,12.13
2022-12-13T04:55:25.380Z,11.87
2022-12-13T04:57:52.246Z,12.20
2022-12-13T05:00:21.215Z,12.63
2022-12-13T05:02:48.268Z,10.73
2022-12-13T05:05:15.503Z,12.37
2022-12-13T05:07:43.112Z,12.40
2022-12-13T05:10:32.078Z,11.87
2022-12-13T05:13:01.049Z,12.07
2022-12-13T05:15:29.113Z,11.77
2022-12-13T05:17:59.692Z,12.10
2022-12-13T05:20:26.932Z,11.77
2022-12-13T05:22:56.490Z,11.83
2022-12-13T05:25:27.393Z,12.03
2022-12-13T05:27:56.918Z,10.83
2022-12-13T05:30:24.052Z,10.30
2022-12-13T05:32:51.083Z,11.77
2022-12-13T05:35:22.882Z,10.73
2022-12-13T05:37:54.570Z,11.17
2022-12-13T05:40:25.620Z,10.63
2022-12-13T05:43:00.834Z,10.30
2022-12-13T05:45:29.929Z,9.93
2022-12-13T05:47:56.801Z,10.10
2022-12-13T05:50:24.638Z,11.03
2022-12-13T05:52:52.519Z,10.80
2022-12-13T05:55:19.859Z,11.00
2022-12-13T05:57:50.528Z,10.70
2022-12-13T06:00:29.739Z,10.17
2022-12-13T06:03:00.477Z,10.63
2022-12-13T06:05:31.605Z,10.40
2022-12-13T06:07:58.960Z,10.33
2022-12-13T06:10:34.233Z,9.63
2022-12-13T06:13:21.534Z,9.57
2022-12-13T06:16:01.669Z,9.43
2022-12-13T06:18:32.303Z,9.27
2022-12-13T06:21:02.031Z,9.80
2022-12-13T06:23:30.809Z,9.90
2022-12-13T06:25:58.302Z,9.27
2022-12-13T06:28:25.158Z,9.43
2022-12-13T06:30:52.522Z,9.50
2022-12-13T06:33:23.191Z,9.47
2022-12-13T06:35:52.729Z,10.10
2022-12-13T06:38:21.949Z,9.40
2022-12-13T06:41:14.293Z,8.20
2022-12-13T06:43:46.270Z,8.87
2022-12-13T06:46:14.177Z,9.07
2022-12-13T06:48:41.883Z,8.87
2022-12-13T06:51:10.309Z,8.77
2022-12-13T06:53:39.479Z,8.47
2022-12-13T06:56:09.123Z,7.97
2022-12-13T06:58:36.364Z,8.47
2022-12-13T07:01:06.409Z,8.20
2022-12-13T07:03:42.642Z,7.83
2022-12-13T07:06:21.704Z,7.63
2022-12-13T07:08:51.374Z,7.60
2022-12-13T07:11:20.661Z,7.40
2022-12-13T07:13:47.493Z,8.07
2022-12-13T07:16:14.646Z,7.13
2022-12-13T07:18:41.513Z,7.30
2022-12-13T07:21:10.580Z,7.10
2022-12-13T07:23:54.907Z,6.83
2022-12-13T07:26:22.915Z,6.97
2022-12-13T07:28:54.780Z,6.73
2022-12-13T07:31:24.270Z,6.80
2022-12-13T07:33:51.750Z,7.20
2022-12-13T07:36:21.297Z,7.10
2022-12-13T07:38:52.914Z,6.93
2022-12-13T07:41:23.489Z,7.10
2022-12-13T07:43:55.355Z,6.90
2022-12-13T07:46:32.159Z,7.67
2022-12-13T07:49:04.803Z,6.77
2022-12-13T07:51:34.320Z,7.27
2022-12-13T07:54:01.107Z,7.13
2022-12-13T07:56:33.840Z,7.90
2022-12-13T07:59:00.640Z,7.77
2022-12-13T08:01:29.262Z,7.70
2022-12-13T08:03:56.417Z,7.50
2022-12-13T08:06:23.537Z,7.70
2022-12-13T08:08:51.273Z,7.87
2022-12-13T08:11:18.175Z,8.63
2022-12-13T08:13:45.023Z,8.17
2022-12-13T08:16:25.937Z,8.30
2022-12-13T08:19:02.462Z,8.30
2022-12-13T08:24:21.070Z,8.70
2022-12-13T08:26:47.924Z,8.93
2022-12-13T08:29:23.266Z,9.33
2022-12-13T08:32:02.136Z,7.97
2022-12-13T08:34:29.549Z,9.23
2022-12-13T08:37:02.508Z,8.23
2022-12-13T08:39:36.921Z,8.93
2022-12-13T08:42:16.811Z,8.03
2022-12-13T08:44:50.404Z,9.07
2022-12-13T08:47:24.051Z,8.33
2022-12-13T08:50:02.572Z,8.13
2022-12-13T08:52:31.010Z,8.20
2022-12-13T08:54:57.856Z,8.57
2022-12-13T08:57:24.687Z,7.97
2022-12-13T08:59:51.438Z,8.67
2022-12-13T09:02:18.395Z,8.30
2022-12-13T09:04:45.823Z,8.83
2022-12-13T09:07:13.399Z,8.30
2022-12-13T09:09:40.248Z,7.93
2022-12-13T09:12:10.480Z,8.50
2022-12-13T09:14:38.340Z,7.67
2022-12-13T09:17:24.679Z,7.83
2022-12-13T09:19:58.326Z,7.83
2022-12-13T09:22:34.051Z,7.60
2022-12-13T09:25:02.468Z,7.53
2022-12-13T09:27:31.276Z,7.70
2022-12-13T09:30:08.935Z,6.90
2022-12-13T09:32:35.716Z,6.93
2022-12-13T09:35:02.528Z,7.73
2022-12-13T09:37:30.451Z,7.20
2022-12-13T09:39:57.372Z,7.60
2022-12-13T09:42:30.852Z,7.30
2022-12-13T09:45:04.295Z,7.60
2022-12-13T09:47:37.916Z,7.07
2022-12-13T09:50:26.465Z,7.20
2022-12-13T09:53:00.276Z,7.00
2022-12-13T09:55:38.143Z,6.53
2022-12-13T09:58:27.850Z,7.17
2022-12-13T10:00:56.228Z,7.03
2022-12-13T10:03:24.678Z,8.00
2022-12-13T10:06:22.647Z,7.00
2022-12-13T10:08:57.695Z,6.77
2022-12-13T10:11:31.616Z,7.27
2022-12-13T10:14:13.796Z,7.10
2022-12-13T10:16:51.068Z,6.83
2022-12-13T10:19:28.287Z,7.07
2022-12-13T10:22:02.185Z,7.23
2022-12-13T10:24:49.624Z,7.70
2022-12-13T10:27:40.876Z,7.47
2022-12-13T10:30:12.887Z,7.20
2022-12-13T10:32:54.988Z,7.33
2022-12-13T10:35:32.717Z,8.00
2022-12-13T10:38:02.009Z,7.67
2022-12-13T10:40:46.780Z,7.97
2022-12-13T10:43:20.436Z,7.50
2022-12-13T10:45:59.293Z,7.23
2022-12-13T10:48:47.824Z,7.13
2022-12-13T10:51:20.284Z,6.87
2022-12-13T10:53:56.244Z,7.33
2022-12-13T10:56:35.288Z,7.20
2022-12-13T10:59:34.028Z,7.40
2022-12-13T11:02:20.329Z,7.23
2022-12-13T11:04:47.287Z,7.50
2022-12-13T11:07:30.568Z,7.80
2022-12-13T11:10:05.039Z,7.60
2022-12-13T11:12:33.228Z,8.00
2022-12-13T11:15:03.308Z,7.90
2022-12-13T11:17:32.511Z,8.03
2022-12-13T11:20:09.889Z,8.43
2022-12-13T11:22:38.853Z,8.07
2022-12-13T11:25:09.786Z,8.23
2022-12-13T11:27:55.061Z,7.70
2022-12-13T11:30:30.884Z,8.30
2022-12-13T11:33:09.472Z,7.90
2022-12-13T11:35:56.425Z,8.57
2022-12-13T11:38:30.753Z,7.67
2022-12-13T11:41:04.176Z,7.93
2022-12-13T11:43:50.824Z,8.50
2022-12-13T11:46:29.156Z,7.83
2022-12-13T11:49:06.642Z,8.07
2022-12-13T11:51:44.424Z,8.10
2022-12-13T11:54:32.112Z,8.07
2022-12-13T11:57:07.878Z,8.17
2022-12-13T11:59:45.008Z,8.20
2022-12-13T12:02:25.943Z,8.70
2022-12-13T12:05:00.774Z,8.47
2022-12-13T12:07:38.340Z,8.47
2022-12-13T12:10:05.215Z,8.10
2022-12-13T12:12:35.211Z,8.30
2022-12-13T12:15:31.255Z,8.47
2022-12-13T12:17:58.557Z,7.83
2022-12-13T12:20:48.522Z,8.43
2022-12-13T12:23:31.524Z,7.97
2022-12-13T12:26:36.879Z,8.30
2022-12-13T12:29:12.358Z,8.40
2022-12-13T12:31:50.897Z,8.20
2022-12-13T12:34:34.827Z,7.70
2022-12-13T12:37:10.543Z,8.57
2022-12-13T12:40:06.381Z,8.53
2022-12-13T12:43:13.825Z,8.30
2022-12-13T12:45:57.844Z,8.30
2022-12-13T12:51:43.561Z,8.13
2022-12-13T12:54:19.211Z,8.40
2022-12-13T12:57:17.357Z,8.00
2022-12-13T13:00:16.738Z,8.00
2022-12-13T13:03:01.383Z,7.73
2022-12-13T13:05:58.601Z,8.80
2022-12-13T13:08:43.497Z,8.57
2022-12-13T13:11:24.340Z,8.37
2022-12-13T13:14:01.412Z,8.03
2022-12-13T13:16:37.417Z,8.63
2022-12-13T13:19:16.743Z,8.47
2022-12-13T13:22:01.912Z,9.10
2022-12-13T13:24:30.234Z,9.33
2022-12-13T13:26:59.967Z,9.30
2022-12-13T13:29:31.513Z,8.47
2022-12-13T13:32:29.678Z,8.60
2022-12-13T13:35:37.783Z,8.60
2022-12-13T13:38:28.689Z,8.43
2022-12-13T13:40:55.677Z,9.20
2022-12-13T13:43:32.518Z,9.37
2022-12-13T13:46:11.000Z,8.37
2022-12-13T13:48:53.097Z,8.50
2022-12-13T13:52:26.567Z,9.00
2022-12-13T13:55:27.198Z,8.90
2022-12-13T13:58:25.883Z,8.33
2022-12-13T14:00:56.322Z,9.00
2022-12-13T14:03:35.099Z,9.00
2022-12-13T14:06:08.081Z,8.97
2022-12-13T14:09:01.916Z,8.07
2022-12-13T14:12:02.639Z,8.53
2022-12-13T14:15:01.701Z,8.27
2022-12-13T14:17:53.111Z,8.40
2022-12-13T14:20:35.860Z,8.83
2022-12-13T14:23:37.419Z,8.63
2022-12-13T14:26:18.911Z,8.53
2022-12-13T14:28:50.272Z,9.40
2022-12-13T14:31:22.294Z,9.13
2022-12-13T14:33:53.766Z,9.00
2022-12-13T14:36:29.121Z,9.10
2022-12-13T14:39:04.219Z,9.20
2022-12-13T14:41:31.531Z,8.67
2022-12-13T14:44:20.626Z,8.90
2022-12-13T14:47:07.378Z,8.17
2022-12-13T14:49:36.961Z,8.50
2022-12-13T14:52:08.676Z,8.50
2022-12-13T14:54:49.386Z,8.80
2022-12-13T14:57:20.534Z,9.17
2022-12-13T14:59:52.378Z,9.13
2022-12-13T15:02:31.071Z,8.67
2022-12-13T15:05:05.970Z,8.80
2022-12-13T15:07:39.135Z,8.70
2022-12-13T15:10:15.308Z,9.33
2022-12-13T15:12:44.373Z,8.83
2022-12-13T15:15:39.738Z,10.07
2022-12-13T15:18:19.563Z,9.57
2022-12-13T15:20:48.314Z,9.70
2022-12-13T15:23:23.558Z,10.40
2022-12-13T15:26:12.354Z,9.40
2022-12-13T15:28:50.018Z,10.60
2022-12-13T15:31:21.815Z,9.70
2022-12-13T15:33:49.113Z,10.03
2022-12-13T15:36:27.012Z,10.40
2022-12-13T15:38:54.745Z,10.10
2022-12-13T15:41:34.866Z,9.80
2022-12-13T15:44:06.055Z,9.60
2022-12-13T15:46:39.663Z,9.90
2022-12-13T15:49:22.549Z,10.27
2022-12-13T15:52:06.293Z,9.40
2022-12-13T15:54:33.945Z,10.60
2022-12-13T15:57:17.581Z,10.40
2022-12-13T15:59:45.963Z,10.87
2022-12-13T16:02:23.533Z,10.83
2022-12-13T16:04:50.569Z,10.70
2022-12-13T16:07:32.604Z,11.37
2022-12-13T16:09:59.495Z,12.17
2022-12-13T16:12:47.781Z,11.57
2022-12-13T16:15:29.569Z,11.60
2022-12-13T16:18:14.693Z,11.80
2022-12-13T16:20:43.953Z,12.43
2022-12-13T16:23:10.943Z,12.67
2022-12-13T16:25:53.690Z,13.00
2022-12-13T16:28:20.766Z,12.97
2022-12-13T16:31:00.919Z,12.10
2022-12-13T16:33:28.186Z,13.37
2022-12-13T16:35:56.121Z,13.60
2022-12-13T16:38:26.756Z,13.23
2022-12-13T16:40:56.138Z,13.67
2022-12-13T16:43:32.785Z,13.43
2022-12-13T16:47:15.374Z,13.63
2022-12-13T16:48:51.766Z,13.17
2022-12-13T16:51:19.064Z,13.37
2022-12-13T16:53:46.638Z,13.03
2022-12-13T16:56:16.511Z,14.10
2022-12-13T16:58:49.709Z,13.80
2022-12-13T17:01:20.290Z,13.80
2022-12-13T17:03:47.711Z,13.93
2022-12-13T17:06:19.047Z,13.90
2022-12-13T17:08:45.907Z,14.50
2022-12-13T17:11:17.858Z,15.83
2022-12-13T17:13:47.058Z,16.17
2022-12-13T17:16:14.677Z,16.00
2022-12-13T17:18:42.059Z,14.80
2022-12-13T17:21:10.341Z,15.17
2022-12-13T17:23:37.766Z,16.13
2022-12-13T17:26:06.989Z,14.47
2022-12-13T17:28:34.326Z,14.97
2022-12-13T17:31:06.498Z,14.70
2022-12-13T17:33:33.598Z,15.77
2022-12-13T17:36:05.372Z,16.17
2022-12-13T17:38:32.488Z,15.33
2022-12-13T17:41:00.700Z,15.53
2022-12-13T17:43:35.969Z,15.43
2022-12-13T17:46:06.041Z,15.77
2022-12-13T17:48:39.867Z,15.23
2022-12-13T17:51:08.803Z,14.60
2022-12-13T17:53:36.279Z,15.93
2022-12-13T17:56:08.988Z,16.37
2022-12-13T17:58:36.139Z,14.90
2022-12-13T18:01:24.990Z,15.93
2022-12-13T18:03:53.722Z,15.80
2022-12-13T18:06:20.550Z,15.67
2022-12-13T18:08:48.207Z,14.70
2022-12-13T18:11:32.987Z,16.17
2022-12-13T18:14:02.184Z,16.40
2022-12-13T18:16:35.727Z,16.27
2022-12-13T18:19:06.208Z,17.50
2022-12-13T18:21:34.033Z,16.27
2022-12-13T18:24:01.141Z,16.97
2022-12-13T18:26:28.013Z,16.50
2022-12-13T18:28:55.331Z,17.23
2022-12-13T18:31:24.673Z,16.40
2022-12-13T18:33:53.053Z,17.07
2022-12-13T18:36:24.035Z,17.87
2022-12-13T18:38:51.496Z,17.33
2022-12-13T18:41:24.358Z,17.13
2022-12-13T18:43:59.483Z,17.73
2022-12-13T18:46:28.218Z,17.97
2022-12-13T18:48:55.591Z,18.20
2022-12-13T18:51:22.542Z,18.00
2022-12-13T18:53:50.739Z,19.03
2022-12-13T18:56:19.181Z,18.00
2022-12-13T18:58:48.089Z,18.00
2022-12-13T19:01:16.202Z,17.63
2022-12-13T19:03:45.255Z,17.63
2022-12-13T19:06:18.084Z,17.70
2022-12-13T19:08:48.764Z,18.40
2022-12-13T19:11:15.981Z,17.80
2022-12-13T19:13:42.965Z,18.53
2022-12-13T19:16:12.514Z,19.17
2022-12-13T19:18:39.583Z,19.30
2022-12-13T19:21:09.839Z,20.00
2022-12-13T19:23:36.704Z,19.83
2022-12-13T19:26:08.549Z,18.90
2022-12-13T19:28:35.902Z,19.73
2022-12-13T19:31:06.733Z,20.23
2022-12-13T19:33:34.284Z,19.53
2022-12-13T19:36:02.001Z,18.60
2022-12-13T19:38:29.113Z,18.80
2022-12-13T19:40:55.985Z,19.33
2022-12-13T19:43:22.955Z,19.57
2022-12-13T19:45:50.031Z,19.40
2022-12-13T19:48:17.065Z,19.23
2022-12-13T19:50:44.445Z,19.70
2022-12-13T19:53:12.054Z,19.03
2022-12-13T19:55:43.902Z,18.60
2022-12-13T19:58:11.213Z,19.43
2022-12-13T20:00:38.249Z,18.67
2022-12-13T20:03:05.626Z,18.20
2022-12-13T20:05:33.649Z,18.83
2022-12-13T20:08:00.992Z,18.97
2022-12-13T20:10:28.750Z,19.27
2022-12-13T20:12:55.934Z,19.07
2022-12-13T20:15:22.919Z,19.17
2022-12-13T20:17:49.829Z,20.20
2022-12-13T20:20:16.946Z,20.00
2022-12-13T20:22:44.151Z,19.90
2022-12-13T20:25:15.274Z,20.00
2022-12-13T20:27:44.069Z,20.33
2022-12-13T20:30:11.655Z,20.57
2022-12-13T20:32:38.533Z,20.00
2022-12-13T20:35:05.831Z,21.13
2022-12-13T20:37:33.111Z,20.03
2022-12-13T20:40:00.052Z,20.17
2022-12-13T20:42:27.001Z,20.73
2022-12-13T20:44:54.149Z,21.50
2022-12-13T20:47:21.060Z,20.77
2022-12-13T20:49:48.281Z,21.03
2022-12-13T20:52:19.332Z,21.10
2022-12-13T20:54:46.333Z,21.17
2022-12-13T20:57:13.397Z,21.03
2022-12-13T20:59:40.324Z,21.13
2022-12-13T21:02:07.437Z,22.60
2022-12-13T21:04:34.475Z,21.07
2022-12-13T21:07:02.635Z,21.37
2022-12-13T21:09:34.525Z,20.47
2022-12-13T21:12:01.500Z,21.70
2022-12-13T21:14:29.332Z,22.43
2022-12-13T21:17:04.754Z,22.10
2022-12-13T21:19:37.770Z,22.90
2022-12-13T21:22:07.118Z,21.93
2022-12-13T21:24:34.028Z,22.90
2022-12-13T21:27:00.874Z,23.37
2022-12-13T21:29:27.894Z,23.57
2022-12-13T21:31:55.359Z,22.93
2022-12-13T21:34:22.763Z,23.20
2022-12-13T21:36:52.418Z,23.57
2022-12-13T21:39:27.910Z,24.53
2022-12-13T21:41:55.642Z,23.90
2022-12-13T21:44:22.842Z,24.03
2022-12-13T21:49:37.474Z,23.10
2022-12-13T21:52:04.895Z,23.67
2022-12-13T21:54:31.945Z,24.60
2022-12-13T21:57:17.394Z,25.13
2022-12-13T21:59:44.294Z,23.83
2022-12-13T22:02:16.841Z,23.37
2022-12-13T22:04:45.281Z,22.83
2022-12-13T22:07:19.967Z,24.87
2022-12-13T22:09:50.231Z,24.83
2022-12-13T22:12:26.574Z,23.77
2022-12-13T22:14:54.065Z,24.10
2022-12-13T22:17:31.247Z,22.73
2022-12-13T22:20:02.304Z,23.40
2022-12-13T22:22:29.560Z,24.90
2022-12-13T22:24:56.512Z,24.70
2022-12-13T22:27:25.224Z,23.37
2022-12-13T22:29:54.007Z,24.17
2022-12-13T22:32:21.156Z,24.90
2022-12-13T22:34:48.444Z,22.93
2022-12-13T22:37:15.357Z,23.90
2022-12-13T22:39:42.326Z,23.90
2022-12-13T22:42:09.290Z,23.93
2022-12-13T22:44:36.300Z,23.30
2022-12-13T22:47:03.415Z,22.50
2022-12-13T22:49:30.522Z,24.03
2022-12-13T22:51:57.530Z,24.77
2022-12-13T22:54:24.522Z,23.23
2022-12-13T22:56:51.836Z,23.90
2022-12-13T22:59:21.235Z,24.23
2022-12-13T23:01:48.525Z,23.83
2022-12-13T23:04:15.515Z,23.33
2022-12-13T23:06:42.598Z,24.30
2022-12-13T23:09:12.918Z,25.00
2022-12-13T23:11:58.906Z,23.17
2022-12-13T23:14:31.150Z,23.50
2022-12-13T23:16:59.397Z,23.57
2022-12-13T23:19:50.434Z,24.03
2022-12-13T23:22:14.332Z,23.63
2022-12-13T23:24:41.233Z,23.53
2022-12-13T23:27:08.156Z,23.97
2022-12-13T23:29:35.096Z,23.23
2022-12-13T23:32:02.061Z,24.23
2022-12-13T23:34:28.991Z,23.00
2022-12-13T23:36:55.832Z,24.03
2022-12-13T23:39:22.609Z,22.80
2022-12-13T23:41:49.748Z,23.43
2022-12-13T23:44:16.659Z,23.10
2022-12-13T23:46:46.419Z,23.20
2022-12-13T23:49:15.248Z,25.13
2022-12-13T23:51:42.156Z,23.47
2022-12-13T23:54:11.803Z,24.10
2022-12-13T23:56:38.723Z,22.80
2022-12-13T23:59:05.653Z,24.03
